sensor_id;sensor_type;location;lat;lon;timestamp;P1;durP1;ratioP1;P2;durP2;ratioP2
9761;SDS011;4920;49.594;11.022;2022-09-09T00:01:20;4.93;;;2.10;;
9761;SDS011;4920;49.594;11.022;2022-09-09T00:03:59;6.47;;;2.20;;
9761;SDS011;4920;49.594;11.022;2022-09-09T00:06:33;4.63;;;2.30;;
9761;SDS011;4920;49.594;11.022;2022-09-09T00:09:04;6.20;;;2.30;;
9761;SDS011;4920;49.594;11.022;2022-09-09T00:11:41;3.33;;;2.27;;
9761;SDS011;4920;49.594;11.022;2022-09-09T00:14:17;3.43;;;2.13;;
9761;SDS011;4920;49.594;11.022;2022-09-09T00:16:53;4.40;;;2.20;;
9761;SDS011;4920;49.594;11.022;2022-09-09T00:19:27;3.70;;;2.20;;
9761;SDS011;4920;49.594;11.022;2022-09-09T00:22:07;4.00;;;2.17;;
9761;SDS011;4920;49.594;11.022;2022-09-09T00:24:44;4.33;;;2.30;;
9761;SDS011;4920;49.594;11.022;2022-09-09T00:27:16;2.70;;;2.00;;
9761;SDS011;4920;49.594;11.022;2022-09-09T00:29:54;4.97;;;2.53;;
9761;SDS011;4920;49.594;11.022;2022-09-09T00:32:29;3.27;;;2.00;;
9761;SDS011;4920;49.594;11.022;2022-09-09T00:35:03;3.83;;;2.23;;
9761;SDS011;4920;49.594;11.022;2022-09-09T00:37:42;3.63;;;2.20;;
9761;SDS011;4920;49.594;11.022;2022-09-09T00:40:16;3.90;;;2.30;;
9761;SDS011;4920;49.594;11.022;2022-09-09T00:42:51;8.13;;;2.37;;
9761;SDS011;4920;49.594;11.022;2022-09-09T00:45:37;2.93;;;2.10;;
9761;SDS011;4920;49.594;11.022;2022-09-09T00:48:31;4.93;;;2.40;;
9761;SDS011;4920;49.594;11.022;2022-09-09T00:51:07;4.30;;;2.20;;
9761;SDS011;4920;49.594;11.022;2022-09-09T00:53:51;3.80;;;2.20;;
9761;SDS011;4920;49.594;11.022;2022-09-09T00:56:29;3.43;;;2.27;;
9761;SDS011;4920;49.594;11.022;2022-09-09T00:59:12;5.23;;;2.33;;
9761;SDS011;4920;49.594;11.022;2022-09-09T01:01:54;4.70;;;2.13;;
9761;SDS011;4920;49.594;11.022;2022-09-09T01:04:27;5.53;;;2.27;;
9761;SDS011;4920;49.594;11.022;2022-09-09T01:07:03;5.67;;;2.03;;
9761;SDS011;4920;49.594;11.022;2022-09-09T01:09:45;4.60;;;2.17;;
9761;SDS011;4920;49.594;11.022;2022-09-09T01:12:26;4.47;;;2.37;;
9761;SDS011;4920;49.594;11.022;2022-09-09T01:15:03;4.83;;;2.47;;
9761;SDS011;4920;49.594;11.022;2022-09-09T01:17:47;3.37;;;2.50;;
9761;SDS011;4920;49.594;11.022;2022-09-09T01:20:23;4.33;;;2.43;;
9761;SDS011;4920;49.594;11.022;2022-09-09T01:29:07;4.20;;;2.33;;
9761;SDS011;4920;49.594;11.022;2022-09-09T01:31:40;6.57;;;2.33;;
9761;SDS011;4920;49.594;11.022;2022-09-09T01:34:20;3.83;;;2.30;;
9761;SDS011;4920;49.594;11.022;2022-09-09T01:36:49;5.30;;;2.37;;
9761;SDS011;4920;49.594;11.022;2022-09-09T01:39:24;4.67;;;2.53;;
9761;SDS011;4920;49.594;11.022;2022-09-09T01:42:02;3.13;;;2.53;;
9761;SDS011;4920;49.594;11.022;2022-09-09T01:44:32;3.60;;;2.30;;
9761;SDS011;4920;49.594;11.022;2022-09-09T01:47:03;4.70;;;2.37;;
9761;SDS011;4920;49.594;11.022;2022-09-09T01:49:34;4.07;;;2.50;;
9761;SDS011;4920;49.594;11.022;2022-09-09T01:52:10;2.60;;;2.30;;
9761;SDS011;4920;49.594;11.022;2022-09-09T01:54:38;4.20;;;2.00;;
9761;SDS011;4920;49.594;11.022;2022-09-09T01:57:17;7.83;;;2.73;;
9761;SDS011;4920;49.594;11.022;2022-09-09T01:59:53;3.87;;;2.20;;
9761;SDS011;4920;49.594;11.022;2022-09-09T02:02:42;5.83;;;2.20;;
9761;SDS011;4920;49.594;11.022;2022-09-09T02:05:24;3.40;;;2.20;;
9761;SDS011;4920;49.594;11.022;2022-09-09T02:08:09;5.73;;;2.23;;
9761;SDS011;4920;49.594;11.022;2022-09-09T02:10:50;3.00;;;2.03;;
9761;SDS011;4920;49.594;11.022;2022-09-09T02:13:38;4.97;;;1.90;;
9761;SDS011;4920;49.594;11.022;2022-09-09T02:16:12;4.43;;;2.10;;
9761;SDS011;4920;49.594;11.022;2022-09-09T02:18:47;4.23;;;2.40;;
9761;SDS011;4920;49.594;11.022;2022-09-09T02:21:24;6.10;;;2.40;;
9761;SDS011;4920;49.594;11.022;2022-09-09T02:23:56;6.67;;;2.40;;
9761;SDS011;4920;49.594;11.022;2022-09-09T02:26:28;5.30;;;2.20;;
9761;SDS011;4920;49.594;11.022;2022-09-09T02:29:04;7.93;;;2.37;;
9761;SDS011;4920;49.594;11.022;2022-09-09T02:31:36;2.50;;;1.80;;
9761;SDS011;4920;49.594;11.022;2022-09-09T02:34:12;5.57;;;2.27;;
9761;SDS011;4920;49.594;11.022;2022-09-09T02:36:44;4.47;;;2.23;;
9761;SDS011;4920;49.594;11.022;2022-09-09T02:39:14;2.67;;;1.90;;
9761;SDS011;4920;49.594;11.022;2022-09-09T02:41:43;2.60;;;1.90;;
9761;SDS011;4920;49.594;11.022;2022-09-09T02:44:14;5.63;;;2.13;;
9761;SDS011;4920;49.594;11.022;2022-09-09T02:46:58;2.97;;;2.00;;
9761;SDS011;4920;49.594;11.022;2022-09-09T02:49:42;3.13;;;1.97;;
9761;SDS011;4920;49.594;11.022;2022-09-09T02:52:32;3.70;;;2.10;;
9761;SDS011;4920;49.594;11.022;2022-09-09T02:55:11;5.90;;;2.30;;
9761;SDS011;4920;49.594;11.022;2022-09-09T02:57:49;3.57;;;1.93;;
9761;SDS011;4920;49.594;11.022;2022-09-09T03:00:25;6.73;;;2.47;;
9761;SDS011;4920;49.594;11.022;2022-09-09T03:02:59;3.50;;;2.03;;
9761;SDS011;4920;49.594;11.022;2022-09-09T03:05:27;4.07;;;1.87;;
9761;SDS011;4920;49.594;11.022;2022-09-09T03:07:56;3.53;;;1.93;;
9761;SDS011;4920;49.594;11.022;2022-09-09T03:10:25;4.17;;;2.00;;
9761;SDS011;4920;49.594;11.022;2022-09-09T03:12:54;3.30;;;1.73;;
9761;SDS011;4920;49.594;11.022;2022-09-09T03:15:26;3.97;;;1.90;;
9761;SDS011;4920;49.594;11.022;2022-09-09T03:17:58;3.17;;;2.07;;
9761;SDS011;4920;49.594;11.022;2022-09-09T03:20:28;2.37;;;1.87;;
9761;SDS011;4920;49.594;11.022;2022-09-09T03:22:59;2.53;;;1.80;;
9761;SDS011;4920;49.594;11.022;2022-09-09T03:25:29;2.83;;;1.93;;
9761;SDS011;4920;49.594;11.022;2022-09-09T03:27:59;3.30;;;2.00;;
9761;SDS011;4920;49.594;11.022;2022-09-09T03:30:29;3.57;;;1.90;;
9761;SDS011;4920;49.594;11.022;2022-09-09T03:32:57;4.30;;;1.77;;
9761;SDS011;4920;49.594;11.022;2022-09-09T03:35:31;3.03;;;2.10;;
9761;SDS011;4920;49.594;11.022;2022-09-09T03:37:59;3.40;;;2.10;;
9761;SDS011;4920;49.594;11.022;2022-09-09T03:40:31;2.63;;;1.90;;
9761;SDS011;4920;49.594;11.022;2022-09-09T03:42:59;5.53;;;2.10;;
9761;SDS011;4920;49.594;11.022;2022-09-09T03:45:29;5.20;;;2.10;;
9761;SDS011;4920;49.594;11.022;2022-09-09T03:47:59;5.07;;;2.00;;
9761;SDS011;4920;49.594;11.022;2022-09-09T03:50:29;5.53;;;2.30;;
9761;SDS011;4920;49.594;11.022;2022-09-09T03:52:58;4.07;;;2.27;;
9761;SDS011;4920;49.594;11.022;2022-09-09T03:55:27;6.50;;;2.10;;
9761;SDS011;4920;49.594;11.022;2022-09-09T03:57:55;5.13;;;2.20;;
9761;SDS011;4920;49.594;11.022;2022-09-09T04:00:24;5.20;;;2.40;;
9761;SDS011;4920;49.594;11.022;2022-09-09T04:02:54;2.67;;;1.90;;
9761;SDS011;4920;49.594;11.022;2022-09-09T04:05:24;4.43;;;2.40;;
9761;SDS011;4920;49.594;11.022;2022-09-09T04:07:53;4.50;;;2.20;;
9761;SDS011;4920;49.594;11.022;2022-09-09T04:10:23;3.17;;;2.00;;
9761;SDS011;4920;49.594;11.022;2022-09-09T04:12:53;7.20;;;2.10;;
9761;SDS011;4920;49.594;11.022;2022-09-09T04:15:21;4.13;;;1.93;;
9761;SDS011;4920;49.594;11.022;2022-09-09T04:17:50;6.40;;;2.50;;
9761;SDS011;4920;49.594;11.022;2022-09-09T04:20:20;4.17;;;2.40;;
9761;SDS011;4920;49.594;11.022;2022-09-09T04:22:49;3.53;;;2.07;;
9761;SDS011;4920;49.594;11.022;2022-09-09T04:25:17;7.20;;;2.80;;
9761;SDS011;4920;49.594;11.022;2022-09-09T04:27:46;6.17;;;2.20;;
9761;SDS011;4920;49.594;11.022;2022-09-09T04:30:15;5.17;;;2.10;;
9761;SDS011;4920;49.594;11.022;2022-09-09T04:32:44;3.10;;;2.30;;
9761;SDS011;4920;49.594;11.022;2022-09-09T04:35:13;4.07;;;2.53;;
9761;SDS011;4920;49.594;11.022;2022-09-09T04:37:43;4.20;;;2.30;;
9761;SDS011;4920;49.594;11.022;2022-09-09T04:40:12;4.23;;;2.30;;
9761;SDS011;4920;49.594;11.022;2022-09-09T04:42:42;5.17;;;2.20;;
9761;SDS011;4920;49.594;11.022;2022-09-09T04:45:13;5.47;;;2.27;;
9761;SDS011;4920;49.594;11.022;2022-09-09T04:47:41;5.63;;;2.10;;
9761;SDS011;4920;49.594;11.022;2022-09-09T04:50:10;4.40;;;2.30;;
9761;SDS011;4920;49.594;11.022;2022-09-09T04:52:39;3.03;;;2.17;;
9761;SDS011;4920;49.594;11.022;2022-09-09T04:55:10;5.50;;;2.27;;
9761;SDS011;4920;49.594;11.022;2022-09-09T04:57:42;4.70;;;2.20;;
9761;SDS011;4920;49.594;11.022;2022-09-09T05:00:12;3.63;;;2.00;;
9761;SDS011;4920;49.594;11.022;2022-09-09T05:02:41;3.90;;;2.50;;
9761;SDS011;4920;49.594;11.022;2022-09-09T05:05:10;6.77;;;2.57;;
9761;SDS011;4920;49.594;11.022;2022-09-09T05:07:40;2.40;;;2.10;;
9761;SDS011;4920;49.594;11.022;2022-09-09T05:10:10;2.97;;;2.17;;
9761;SDS011;4920;49.594;11.022;2022-09-09T05:12:41;4.23;;;2.23;;
9761;SDS011;4920;49.594;11.022;2022-09-09T05:15:10;6.00;;;2.50;;
9761;SDS011;4920;49.594;11.022;2022-09-09T05:17:39;4.30;;;2.20;;
9761;SDS011;4920;49.594;11.022;2022-09-09T05:20:09;3.53;;;2.40;;
9761;SDS011;4920;49.594;11.022;2022-09-09T05:22:43;2.60;;;2.40;;
9761;SDS011;4920;49.594;11.022;2022-09-09T05:25:13;4.17;;;2.40;;
9761;SDS011;4920;49.594;11.022;2022-09-09T05:27:41;4.77;;;2.50;;
9761;SDS011;4920;49.594;11.022;2022-09-09T05:30:10;4.17;;;2.30;;
9761;SDS011;4920;49.594;11.022;2022-09-09T05:32:39;3.97;;;2.40;;
9761;SDS011;4920;49.594;11.022;2022-09-09T05:35:08;4.10;;;2.30;;
9761;SDS011;4920;49.594;11.022;2022-09-09T05:37:38;3.87;;;2.37;;
9761;SDS011;4920;49.594;11.022;2022-09-09T05:40:07;4.13;;;2.23;;
9761;SDS011;4920;49.594;11.022;2022-09-09T05:42:40;5.13;;;2.10;;
9761;SDS011;4920;49.594;11.022;2022-09-09T05:45:09;5.53;;;2.43;;
9761;SDS011;4920;49.594;11.022;2022-09-09T05:47:38;3.33;;;2.23;;
9761;SDS011;4920;49.594;11.022;2022-09-09T05:50:10;5.47;;;2.40;;
9761;SDS011;4920;49.594;11.022;2022-09-09T05:52:39;3.13;;;2.13;;
9761;SDS011;4920;49.594;11.022;2022-09-09T05:55:08;5.70;;;2.13;;
9761;SDS011;4920;49.594;11.022;2022-09-09T05:57:36;4.47;;;2.20;;
9761;SDS011;4920;49.594;11.022;2022-09-09T06:00:08;5.20;;;2.20;;
9761;SDS011;4920;49.594;11.022;2022-09-09T06:02:49;6.97;;;2.40;;
9761;SDS011;4920;49.594;11.022;2022-09-09T06:05:20;5.07;;;2.40;;
9761;SDS011;4920;49.594;11.022;2022-09-09T06:07:51;5.07;;;2.10;;
9761;SDS011;4920;49.594;11.022;2022-09-09T06:10:21;5.87;;;2.30;;
9761;SDS011;4920;49.594;11.022;2022-09-09T06:12:52;3.73;;;2.20;;
9761;SDS011;4920;49.594;11.022;2022-09-09T06:15:22;5.32;;;2.00;;
9761;SDS011;4920;49.594;11.022;2022-09-09T06:17:53;3.40;;;2.25;;
9761;SDS011;4920;49.594;11.022;2022-09-09T06:20:23;6.20;;;2.45;;
9761;SDS011;4920;49.594;11.022;2022-09-09T06:22:52;5.80;;;2.30;;
9761;SDS011;4920;49.594;11.022;2022-09-09T06:25:20;3.70;;;2.30;;
9761;SDS011;4920;49.594;11.022;2022-09-09T06:27:49;3.72;;;2.40;;
9761;SDS011;4920;49.594;11.022;2022-09-09T06:30:17;6.63;;;2.70;;
9761;SDS011;4920;49.594;11.022;2022-09-09T06:32:47;2.53;;;2.10;;
9761;SDS011;4920;49.594;11.022;2022-09-09T06:35:16;7.57;;;2.40;;
9761;SDS011;4920;49.594;11.022;2022-09-09T06:37:45;4.13;;;2.40;;
9761;SDS011;4920;49.594;11.022;2022-09-09T06:40:17;4.28;;;2.53;;
9761;SDS011;4920;49.594;11.022;2022-09-09T06:42:46;3.53;;;2.15;;
9761;SDS011;4920;49.594;11.022;2022-09-09T06:45:23;3.90;;;2.13;;
9761;SDS011;4920;49.594;11.022;2022-09-09T06:47:56;6.28;;;2.53;;
9761;SDS011;4920;49.594;11.022;2022-09-09T06:50:25;5.35;;;2.50;;
9761;SDS011;4920;49.594;11.022;2022-09-09T06:52:53;4.00;;;2.05;;
9761;SDS011;4920;49.594;11.022;2022-09-09T06:55:22;8.38;;;2.28;;
9761;SDS011;4920;49.594;11.022;2022-09-09T06:57:51;6.05;;;1.92;;
9761;SDS011;4920;49.594;11.022;2022-09-09T07:00:22;3.42;;;2.00;;
9761;SDS011;4920;49.594;11.022;2022-09-09T07:02:50;4.38;;;1.88;;
9761;SDS011;4920;49.594;11.022;2022-09-09T07:05:21;4.65;;;1.88;;
9761;SDS011;4920;49.594;11.022;2022-09-09T07:07:51;3.65;;;1.90;;
9761;SDS011;4920;49.594;11.022;2022-09-09T07:10:20;4.22;;;2.10;;
9761;SDS011;4920;49.594;11.022;2022-09-09T07:12:50;4.43;;;2.08;;
9761;SDS011;4920;49.594;11.022;2022-09-09T07:15:21;5.72;;;2.17;;
9761;SDS011;4920;49.594;11.022;2022-09-09T07:17:50;4.97;;;2.00;;
9761;SDS011;4920;49.594;11.022;2022-09-09T07:20:21;2.55;;;1.67;;
9761;SDS011;4920;49.594;11.022;2022-09-09T07:22:50;4.93;;;2.22;;
9761;SDS011;4920;49.594;11.022;2022-09-09T07:25:23;6.97;;;2.10;;
9761;SDS011;4920;49.594;11.022;2022-09-09T07:27:53;6.75;;;1.92;;
9761;SDS011;4920;49.594;11.022;2022-09-09T07:30:21;5.82;;;1.90;;
9761;SDS011;4920;49.594;11.022;2022-09-09T07:32:54;3.10;;;1.80;;
9761;SDS011;4920;49.594;11.022;2022-09-09T07:35:25;5.38;;;1.88;;
9761;SDS011;4920;49.594;11.022;2022-09-09T07:37:53;4.38;;;1.95;;
9761;SDS011;4920;49.594;11.022;2022-09-09T07:40:22;5.38;;;1.73;;
9761;SDS011;4920;49.594;11.022;2022-09-09T07:42:52;5.60;;;1.75;;
9761;SDS011;4920;49.594;11.022;2022-09-09T07:45:20;5.80;;;2.00;;
9761;SDS011;4920;49.594;11.022;2022-09-09T07:47:49;3.45;;;2.05;;
9761;SDS011;4920;49.594;11.022;2022-09-09T07:50:19;6.63;;;2.00;;
9761;SDS011;4920;49.594;11.022;2022-09-09T07:52:50;4.70;;;1.63;;
9761;SDS011;4920;49.594;11.022;2022-09-09T07:55:20;3.95;;;1.90;;
9761;SDS011;4920;49.594;11.022;2022-09-09T07:57:50;4.07;;;1.65;;
9761;SDS011;4920;49.594;11.022;2022-09-09T08:00:19;3.70;;;1.80;;
9761;SDS011;4920;49.594;11.022;2022-09-09T08:02:52;4.35;;;1.70;;
9761;SDS011;4920;49.594;11.022;2022-09-09T08:05:21;6.28;;;1.60;;
9761;SDS011;4920;49.594;11.022;2022-09-09T08:07:53;9.70;;;1.75;;
9761;SDS011;4920;49.594;11.022;2022-09-09T08:10:22;4.63;;;1.70;;
9761;SDS011;4920;49.594;11.022;2022-09-09T08:12:52;5.43;;;1.65;;
9761;SDS011;4920;49.594;11.022;2022-09-09T08:15:41;6.55;;;1.77;;
9761;SDS011;4920;49.594;11.022;2022-09-09T08:18:11;7.53;;;1.77;;
9761;SDS011;4920;49.594;11.022;2022-09-09T08:20:40;6.55;;;1.85;;
9761;SDS011;4920;49.594;11.022;2022-09-09T08:23:10;6.88;;;1.80;;
9761;SDS011;4920;49.594;11.022;2022-09-09T08:25:39;4.50;;;1.58;;
9761;SDS011;4920;49.594;11.022;2022-09-09T08:28:07;4.35;;;1.50;;
9761;SDS011;4920;49.594;11.022;2022-09-09T08:30:36;3.85;;;1.60;;
9761;SDS011;4920;49.594;11.022;2022-09-09T08:33:05;5.07;;;1.85;;
9761;SDS011;4920;49.594;11.022;2022-09-09T08:35:34;8.55;;;2.03;;
9761;SDS011;4920;49.594;11.022;2022-09-09T08:38:03;3.30;;;1.58;;
9761;SDS011;4920;49.594;11.022;2022-09-09T08:40:39;4.40;;;1.55;;
9761;SDS011;4920;49.594;11.022;2022-09-09T08:43:12;5.10;;;1.58;;
9761;SDS011;4920;49.594;11.022;2022-09-09T08:45:46;3.75;;;1.40;;
9761;SDS011;4920;49.594;11.022;2022-09-09T08:48:27;2.65;;;1.50;;
9761;SDS011;4920;49.594;11.022;2022-09-09T08:51:09;5.25;;;1.48;;
9761;SDS011;4920;49.594;11.022;2022-09-09T08:53:40;6.05;;;1.50;;
9761;SDS011;4920;49.594;11.022;2022-09-09T08:56:12;4.43;;;1.60;;
9761;SDS011;4920;49.594;11.022;2022-09-09T08:58:47;6.20;;;1.70;;
9761;SDS011;4920;49.594;11.022;2022-09-09T09:01:26;3.00;;;1.40;;
9761;SDS011;4920;49.594;11.022;2022-09-09T09:04:14;3.45;;;1.40;;
9761;SDS011;4920;49.594;11.022;2022-09-09T09:07:04;3.65;;;1.45;;
9761;SDS011;4920;49.594;11.022;2022-09-09T09:09:46;3.80;;;1.30;;
9761;SDS011;4920;49.594;11.022;2022-09-09T09:12:28;3.35;;;1.20;;
9761;SDS011;4920;49.594;11.022;2022-09-09T09:15:05;3.55;;;1.40;;
9761;SDS011;4920;49.594;11.022;2022-09-09T09:17:43;4.78;;;1.20;;
9761;SDS011;4920;49.594;11.022;2022-09-09T09:20:12;2.80;;;1.10;;
9761;SDS011;4920;49.594;11.022;2022-09-09T09:22:45;3.45;;;1.10;;
9761;SDS011;4920;49.594;11.022;2022-09-09T09:25:18;3.92;;;1.20;;
9761;SDS011;4920;49.594;11.022;2022-09-09T09:27:56;3.88;;;1.23;;
9761;SDS011;4920;49.594;11.022;2022-09-09T09:30:30;4.65;;;1.10;;
9761;SDS011;4920;49.594;11.022;2022-09-09T09:33:08;3.22;;;0.90;;
9761;SDS011;4920;49.594;11.022;2022-09-09T09:35:45;5.43;;;1.05;;
9761;SDS011;4920;49.594;11.022;2022-09-09T09:38:20;4.30;;;0.85;;
9761;SDS011;4920;49.594;11.022;2022-09-09T09:41:10;5.13;;;1.35;;
9761;SDS011;4920;49.594;11.022;2022-09-09T09:43:41;5.47;;;1.23;;
9761;SDS011;4920;49.594;11.022;2022-09-09T09:46:19;3.22;;;1.00;;
9761;SDS011;4920;49.594;11.022;2022-09-09T09:48:56;3.50;;;1.27;;
9761;SDS011;4920;49.594;11.022;2022-09-09T09:51:26;2.47;;;0.80;;
9761;SDS011;4920;49.594;11.022;2022-09-09T09:54:13;3.38;;;0.90;;
9761;SDS011;4920;49.594;11.022;2022-09-09T09:56:51;2.92;;;1.08;;
9761;SDS011;4920;49.594;11.022;2022-09-09T09:59:23;2.65;;;1.05;;
9761;SDS011;4920;49.594;11.022;2022-09-09T10:02:14;3.78;;;1.02;;
9761;SDS011;4920;49.594;11.022;2022-09-09T10:04:49;1.60;;;0.80;;
9761;SDS011;4920;49.594;11.022;2022-09-09T10:07:31;2.50;;;0.90;;
9761;SDS011;4920;49.594;11.022;2022-09-09T10:10:00;2.95;;;1.00;;
9761;SDS011;4920;49.594;11.022;2022-09-09T10:12:32;3.05;;;1.00;;
9761;SDS011;4920;49.594;11.022;2022-09-09T10:15:18;3.92;;;0.98;;
9761;SDS011;4920;49.594;11.022;2022-09-09T10:18:01;2.83;;;0.98;;
9761;SDS011;4920;49.594;11.022;2022-09-09T10:20:40;2.80;;;1.20;;
9761;SDS011;4920;49.594;11.022;2022-09-09T10:23:18;3.45;;;1.20;;
9761;SDS011;4920;49.594;11.022;2022-09-09T10:26:00;3.08;;;0.90;;
9761;SDS011;4920;49.594;11.022;2022-09-09T10:28:45;3.45;;;1.00;;
9761;SDS011;4920;49.594;11.022;2022-09-09T10:31:30;2.50;;;1.02;;
9761;SDS011;4920;49.594;11.022;2022-09-09T10:34:08;4.82;;;1.00;;
9761;SDS011;4920;49.594;11.022;2022-09-09T10:36:46;3.90;;;1.05;;
9761;SDS011;4920;49.594;11.022;2022-09-09T10:39:18;3.22;;;0.95;;
9761;SDS011;4920;49.594;11.022;2022-09-09T10:42:08;3.33;;;0.90;;
9761;SDS011;4920;49.594;11.022;2022-09-09T10:47:39;4.55;;;1.13;;
9761;SDS011;4920;49.594;11.022;2022-09-09T10:50:29;3.78;;;1.10;;
9761;SDS011;4920;49.594;11.022;2022-09-09T10:53:33;6.18;;;1.40;;
9761;SDS011;4920;49.594;11.022;2022-09-09T10:56:06;4.10;;;1.00;;
9761;SDS011;4920;49.594;11.022;2022-09-09T10:58:38;4.20;;;0.90;;
9761;SDS011;4920;49.594;11.022;2022-09-09T11:01:12;2.42;;;0.90;;
9761;SDS011;4920;49.594;11.022;2022-09-09T11:03:46;2.42;;;1.20;;
9761;SDS011;4920;49.594;11.022;2022-09-09T11:06:21;7.53;;;1.30;;
9761;SDS011;4920;49.594;11.022;2022-09-09T11:08:55;3.38;;;1.08;;
9761;SDS011;4920;49.594;11.022;2022-09-09T11:11:29;3.88;;;1.00;;
9761;SDS011;4920;49.594;11.022;2022-09-09T11:14:01;2.88;;;1.00;;
9761;SDS011;4920;49.594;11.022;2022-09-09T11:16:38;4.65;;;1.00;;
9761;SDS011;4920;49.594;11.022;2022-09-09T11:19:13;3.40;;;1.20;;
9761;SDS011;4920;49.594;11.022;2022-09-09T11:21:48;2.95;;;1.00;;
9761;SDS011;4920;49.594;11.022;2022-09-09T11:24:20;3.03;;;1.00;;
9761;SDS011;4920;49.594;11.022;2022-09-09T11:26:52;4.35;;;1.25;;
9761;SDS011;4920;49.594;11.022;2022-09-09T11:32:21;3.35;;;1.10;;
9761;SDS011;4920;49.594;11.022;2022-09-09T11:35:07;3.17;;;1.10;;
9761;SDS011;4920;49.594;11.022;2022-09-09T11:37:51;3.05;;;0.95;;
9761;SDS011;4920;49.594;11.022;2022-09-09T11:40:30;2.95;;;1.08;;
9761;SDS011;4920;49.594;11.022;2022-09-09T11:43:01;3.15;;;1.00;;
9761;SDS011;4920;49.594;11.022;2022-09-09T11:45:33;3.20;;;1.08;;
9761;SDS011;4920;49.594;11.022;2022-09-09T11:48:04;3.78;;;0.90;;
9761;SDS011;4920;49.594;11.022;2022-09-09T11:50:35;1.95;;;0.90;;
9761;SDS011;4920;49.594;11.022;2022-09-09T11:53:19;4.20;;;0.95;;
9761;SDS011;4920;49.594;11.022;2022-09-09T11:56:00;3.78;;;1.00;;
9761;SDS011;4920;49.594;11.022;2022-09-09T11:58:34;4.05;;;1.05;;
9761;SDS011;4920;49.594;11.022;2022-09-09T12:01:13;2.22;;;1.00;;
9761;SDS011;4920;49.594;11.022;2022-09-09T12:07:01;3.10;;;1.00;;
9761;SDS011;4920;49.594;11.022;2022-09-09T12:09:33;3.20;;;1.13;;
9761;SDS011;4920;49.594;11.022;2022-09-09T12:12:23;2.85;;;1.00;;
9761;SDS011;4920;49.594;11.022;2022-09-09T12:14:59;2.72;;;0.75;;
9761;SDS011;4920;49.594;11.022;2022-09-09T12:17:30;2.70;;;0.90;;
9761;SDS011;4920;49.594;11.022;2022-09-09T12:20:00;3.90;;;0.95;;
9761;SDS011;4920;49.594;11.022;2022-09-09T12:22:37;3.15;;;1.20;;
9761;SDS011;4920;49.594;11.022;2022-09-09T12:25:16;2.45;;;0.93;;
9761;SDS011;4920;49.594;11.022;2022-09-09T12:27:55;2.70;;;0.90;;
9761;SDS011;4920;49.594;11.022;2022-09-09T12:30:31;2.45;;;0.90;;
9761;SDS011;4920;49.594;11.022;2022-09-09T12:33:08;2.58;;;0.80;;
9761;SDS011;4920;49.594;11.022;2022-09-09T12:35:40;4.30;;;0.90;;
9761;SDS011;4920;49.594;11.022;2022-09-09T12:38:13;3.15;;;0.90;;
9761;SDS011;4920;49.594;11.022;2022-09-09T12:40:53;2.08;;;0.90;;
9761;SDS011;4920;49.594;11.022;2022-09-09T12:43:23;2.42;;;0.77;;
9761;SDS011;4920;49.594;11.022;2022-09-09T12:45:53;2.42;;;0.90;;
9761;SDS011;4920;49.594;11.022;2022-09-09T12:48:28;2.20;;;0.88;;
9761;SDS011;4920;49.594;11.022;2022-09-09T12:51:03;2.22;;;1.00;;
9761;SDS011;4920;49.594;11.022;2022-09-09T12:53:47;3.03;;;1.00;;
9761;SDS011;4920;49.594;11.022;2022-09-09T12:56:20;6.03;;;1.00;;
9761;SDS011;4920;49.594;11.022;2022-09-09T12:58:51;2.70;;;1.00;;
9761;SDS011;4920;49.594;11.022;2022-09-09T13:01:22;3.15;;;0.95;;
9761;SDS011;4920;49.594;11.022;2022-09-09T13:03:52;4.93;;;1.30;;
9761;SDS011;4920;49.594;11.022;2022-09-09T13:06:21;11.52;;;2.80;;
9761;SDS011;4920;49.594;11.022;2022-09-09T13:08:58;5.07;;;1.70;;
9761;SDS011;4920;49.594;11.022;2022-09-09T13:11:28;5.78;;;1.40;;
9761;SDS011;4920;49.594;11.022;2022-09-09T13:14:01;8.88;;;2.20;;
9761;SDS011;4920;49.594;11.022;2022-09-09T13:16:31;9.98;;;2.30;;
9761;SDS011;4920;49.594;11.022;2022-09-09T13:19:09;7.47;;;2.10;;
9761;SDS011;4920;49.594;11.022;2022-09-09T13:21:42;6.53;;;1.83;;
9761;SDS011;4920;49.594;11.022;2022-09-09T13:24:23;9.23;;;2.17;;
9761;SDS011;4920;49.594;11.022;2022-09-09T13:26:56;6.57;;;1.60;;
9761;SDS011;4920;49.594;11.022;2022-09-09T13:29:26;4.38;;;1.48;;
9761;SDS011;4920;49.594;11.022;2022-09-09T13:32:03;8.00;;;2.05;;
9761;SDS011;4920;49.594;11.022;2022-09-09T13:34:33;5.80;;;1.70;;
9761;SDS011;4920;49.594;11.022;2022-09-09T13:37:03;5.13;;;1.60;;
9761;SDS011;4920;49.594;11.022;2022-09-09T13:39:35;4.63;;;1.50;;
9761;SDS011;4920;49.594;11.022;2022-09-09T13:42:05;4.80;;;1.50;;
9761;SDS011;4920;49.594;11.022;2022-09-09T13:44:49;5.40;;;1.60;;
9761;SDS011;4920;49.594;11.022;2022-09-09T13:47:18;7.30;;;1.55;;
9761;SDS011;4920;49.594;11.022;2022-09-09T13:49:47;3.03;;;1.45;;
9761;SDS011;4920;49.594;11.022;2022-09-09T13:52:16;4.82;;;1.40;;
9761;SDS011;4920;49.594;11.022;2022-09-09T13:54:48;4.00;;;1.50;;
9761;SDS011;4920;49.594;11.022;2022-09-09T13:57:18;4.95;;;1.60;;
9761;SDS011;4920;49.594;11.022;2022-09-09T13:59:48;5.63;;;1.60;;
9761;SDS011;4920;49.594;11.022;2022-09-09T14:02:31;4.38;;;1.50;;
9761;SDS011;4920;49.594;11.022;2022-09-09T14:05:00;6.85;;;1.55;;
9761;SDS011;4920;49.594;11.022;2022-09-09T14:07:28;7.43;;;1.60;;
9761;SDS011;4920;49.594;11.022;2022-09-09T14:10:00;4.10;;;1.25;;
9761;SDS011;4920;49.594;11.022;2022-09-09T14:12:28;6.65;;;1.30;;
9761;SDS011;4920;49.594;11.022;2022-09-09T14:14:57;5.13;;;1.30;;
9761;SDS011;4920;49.594;11.022;2022-09-09T14:17:26;3.65;;;1.10;;
9761;SDS011;4920;49.594;11.022;2022-09-09T14:19:57;3.35;;;1.08;;
9761;SDS011;4920;49.594;11.022;2022-09-09T14:22:26;5.18;;;1.35;;
9761;SDS011;4920;49.594;11.022;2022-09-09T14:24:55;3.47;;;1.30;;
9761;SDS011;4920;49.594;11.022;2022-09-09T14:27:25;3.20;;;1.20;;
9761;SDS011;4920;49.594;11.022;2022-09-09T14:29:54;4.63;;;1.15;;
9761;SDS011;4920;49.594;11.022;2022-09-09T14:32:24;3.95;;;1.40;;
9761;SDS011;4920;49.594;11.022;2022-09-09T14:34:52;3.50;;;1.10;;
9761;SDS011;4920;49.594;11.022;2022-09-09T14:37:21;5.82;;;1.15;;
9761;SDS011;4920;49.594;11.022;2022-09-09T14:39:49;4.68;;;1.27;;
9761;SDS011;4920;49.594;11.022;2022-09-09T14:42:18;3.63;;;1.20;;
9761;SDS011;4920;49.594;11.022;2022-09-09T14:44:48;4.38;;;1.35;;
9761;SDS011;4920;49.594;11.022;2022-09-09T14:47:16;3.80;;;1.08;;
9761;SDS011;4920;49.594;11.022;2022-09-09T14:49:44;4.78;;;1.70;;
9761;SDS011;4920;49.594;11.022;2022-09-09T14:52:16;3.60;;;1.38;;
9761;SDS011;4920;49.594;11.022;2022-09-09T14:54:44;5.22;;;1.50;;
9761;SDS011;4920;49.594;11.022;2022-09-09T14:57:12;5.63;;;1.50;;
9761;SDS011;4920;49.594;11.022;2022-09-09T14:59:41;7.22;;;1.75;;
9761;SDS011;4920;49.594;11.022;2022-09-09T15:02:11;4.35;;;1.60;;
9761;SDS011;4920;49.594;11.022;2022-09-09T15:04:40;8.00;;;1.40;;
9761;SDS011;4920;49.594;11.022;2022-09-09T15:07:09;4.43;;;1.63;;
9761;SDS011;4920;49.594;11.022;2022-09-09T15:09:38;5.95;;;1.60;;
9761;SDS011;4920;49.594;11.022;2022-09-09T15:12:07;4.03;;;1.63;;
9761;SDS011;4920;49.594;11.022;2022-09-09T15:14:35;4.53;;;1.60;;
9761;SDS011;4920;49.594;11.022;2022-09-09T15:17:04;3.25;;;1.27;;
9761;SDS011;4920;49.594;11.022;2022-09-09T15:19:34;4.18;;;1.40;;
9761;SDS011;4920;49.594;11.022;2022-09-09T15:22:03;2.85;;;1.45;;
9761;SDS011;4920;49.594;11.022;2022-09-09T15:24:33;4.63;;;1.30;;
9761;SDS011;4920;49.594;11.022;2022-09-09T15:27:02;4.55;;;1.40;;
9761;SDS011;4920;49.594;11.022;2022-09-09T15:29:31;5.30;;;1.80;;
9761;SDS011;4920;49.594;11.022;2022-09-09T15:32:00;6.82;;;1.50;;
9761;SDS011;4920;49.594;11.022;2022-09-09T15:34:28;7.18;;;1.60;;
9761;SDS011;4920;49.594;11.022;2022-09-09T15:36:59;5.32;;;1.40;;
9761;SDS011;4920;49.594;11.022;2022-09-09T15:39:27;6.03;;;1.65;;
9761;SDS011;4920;49.594;11.022;2022-09-09T15:41:56;5.97;;;1.50;;
9761;SDS011;4920;49.594;11.022;2022-09-09T15:44:24;3.97;;;1.30;;
9761;SDS011;4920;49.594;11.022;2022-09-09T15:46:53;4.45;;;1.48;;
9761;SDS011;4920;49.594;11.022;2022-09-09T15:49:22;5.25;;;1.50;;
9761;SDS011;4920;49.594;11.022;2022-09-09T15:51:52;4.70;;;1.33;;